Flugplatz Kamenz

Für EDCM sind keine METAR/TAF Berichte vorhanden.
Es werden die Flugwettermeldungen vom Flugplatz Dresden in 30 km Entfernung angezeigt.

Bericht für EDDC

vom 23.05. um 19:20 UTC

kein Wind

Sichtweite 10 km oder mehr

gute Sicht, keine Wolken < 5000 ft, keine CB, keine Wettererscheinungen (CAVOK)

Temperatur 15.0°C

Taupunkt 0.0°C

Luftfeuchtigkeit 36%

Luftdruck 1017 hPa

keine wesentliche Wetteränderung innerhalb den nächsten 2 Stunden zu erwarten

EDDC 231920Z 00000KT CAVOK 15/M00 Q1017 NOSIG

Prognose für EDDC

vom 23.05. um 17:00 UTC

Zwischen 18:00 UTC und 22:00 UTC

variable Windrichtung mit 3 kt

Sichtweite 10 km oder mehr

keine signifikanten Wettererscheinungen

keine Wolken


Zwischen 22:00 und 01:00 UTC übergehend zu

Wind 5 kt aus 170°

Sichtweite 10 km oder mehr

keine signifikanten Wettererscheinungen

keine Wolken


Am 24.05. zwischen 06:00 und 09:00 UTC übergehend zu

Wind 5 kt aus 290°

Sichtweite 10 km oder mehr

keine signifikanten Wettererscheinungen

keine Wolken

TAF EDDC 231700Z 2318/2418 VRB03KT CAVOK BECMG 2322/2401 17005KT BECMG 2406/2409 29005KT
Impressum